createdAt,value
2017-03-04T00:00:57.588Z,98511
2017-03-04T00:01:57.136Z,98508
2017-03-04T00:02:57.119Z,98508
2017-03-04T00:03:57.349Z,98511
2017-03-04T00:04:57.761Z,98505
2017-03-04T00:05:57.301Z,98518
2017-03-04T00:06:57.403Z,98506
2017-03-04T00:07:57.990Z,98511
2017-03-04T00:08:58.080Z,98512
2017-03-04T00:09:57.779Z,98513
2017-03-04T00:10:58.282Z,98515
2017-03-04T00:11:58.285Z,98514
2017-03-04T00:12:58.409Z,98510
2017-03-04T00:13:57.855Z,98505
2017-03-04T00:14:58.643Z,98508
2017-03-04T00:15:58.570Z,98506
2017-03-04T00:16:58.582Z,98509
2017-03-04T00:17:58.087Z,98506
2017-03-04T00:18:58.192Z,98504
2017-03-04T00:19:58.763Z,98505
2017-03-04T00:20:58.415Z,98500
2017-03-04T00:21:58.782Z,98499
2017-03-04T00:22:58.390Z,98500
2017-03-04T00:23:58.976Z,98503
2017-03-04T00:24:58.494Z,98497
2017-03-04T00:25:58.437Z,98498
2017-03-04T00:26:59.260Z,98496
2017-03-04T00:27:59.144Z,98496
2017-03-04T00:28:58.705Z,98496
2017-03-04T00:29:58.727Z,98496
2017-03-04T00:30:58.849Z,98491
2017-03-04T00:31:59.632Z,98492
2017-03-04T00:32:59.014Z,98494
2017-03-04T00:33:59.085Z,98489
2017-03-04T00:34:59.058Z,98486
2017-03-04T00:35:59.041Z,98490
2017-03-04T00:36:59.092Z,98487
2017-03-04T00:37:59.358Z,98484
2017-03-04T00:38:59.155Z,98481
2017-03-04T00:39:59.786Z,98477
2017-03-04T00:40:59.278Z,98480
2017-03-04T00:41:59.307Z,98474
2017-03-04T00:42:59.384Z,98469
2017-03-04T00:43:59.597Z,98468
2017-03-04T00:45:00.063Z,98470
2017-03-04T00:45:59.650Z,98468
2017-03-04T00:47:00.207Z,98465
2017-03-04T00:48:00.204Z,98468
2017-03-04T00:49:00.238Z,98467
2017-03-04T00:49:59.871Z,98466
2017-03-04T00:51:00.289Z,98460
2017-03-04T00:51:59.856Z,98459
2017-03-04T00:52:59.861Z,98460
2017-03-04T00:53:59.897Z,98456
2017-03-04T00:54:59.905Z,98455
2017-03-04T00:56:00.149Z,98455
2017-03-04T00:56:59.925Z,98455
2017-03-04T00:58:00.542Z,98454
2017-03-04T00:59:00.615Z,98452
2017-03-04T01:00:00.058Z,98447
2017-03-04T01:01:00.189Z,98450
2017-03-04T01:02:01.093Z,98450
2017-03-04T01:03:00.308Z,98442
2017-03-04T01:04:00.387Z,98441
2017-03-04T01:05:00.386Z,98442
2017-03-04T01:06:01.023Z,98437
2017-03-04T01:07:01.085Z,98428
2017-03-04T01:08:00.760Z,98431
2017-03-04T01:09:01.191Z,98419
2017-03-04T01:10:00.694Z,98421
2017-03-04T01:11:01.222Z,98423
2017-03-04T01:12:00.717Z,98424
2017-03-04T01:13:01.347Z,98424
2017-03-04T01:14:00.945Z,98421
2017-03-04T01:15:01.428Z,98422
2017-03-04T01:16:01.435Z,98422
2017-03-04T01:17:01.496Z,98420
2017-03-04T01:18:01.587Z,98418
2017-03-04T01:19:01.063Z,98419
2017-03-04T01:20:01.806Z,98426
2017-03-04T01:21:01.755Z,98419
2017-03-04T01:22:01.783Z,98419
2017-03-04T01:23:01.869Z,98417
2017-03-04T01:24:01.379Z,98421
2017-03-04T01:25:01.978Z,98417
2017-03-04T01:26:01.765Z,98413
2017-03-04T01:27:02.082Z,98421
2017-03-04T01:28:01.510Z,98412
2017-03-04T01:29:01.596Z,98416
2017-03-04T01:30:01.570Z,98414
2017-03-04T01:31:02.230Z,98416
2017-03-04T01:32:02.414Z,98415
2017-03-04T01:33:02.278Z,98415
2017-03-04T01:34:01.766Z,98411
2017-03-04T01:35:01.831Z,98420
2017-03-04T01:36:02.358Z,98415
2017-03-04T01:37:01.869Z,98416
2017-03-04T01:38:02.660Z,98412
2017-03-04T01:39:02.602Z,98414
2017-03-04T01:40:02.082Z,98403
2017-03-04T01:41:02.638Z,98410
2017-03-04T01:42:02.736Z,98410
2017-03-04T01:43:02.292Z,98411
2017-03-04T01:44:03.215Z,98409
2017-03-04T01:45:03.043Z,98407
2017-03-04T01:46:03.025Z,98409
2017-03-04T01:47:03.095Z,98404
2017-03-04T01:48:02.631Z,98407
2017-03-04T01:49:02.659Z,98404
2017-03-04T01:50:02.916Z,98396
2017-03-04T01:51:03.344Z,98399
2017-03-04T01:52:02.861Z,98399
2017-03-04T01:53:02.922Z,98395
2017-03-04T01:54:02.966Z,98391
2017-03-04T01:55:03.550Z,98399
2017-03-04T01:56:03.864Z,98397
2017-03-04T01:57:03.139Z,98399
2017-03-04T01:58:03.198Z,98393
2017-03-04T01:59:03.816Z,98385
2017-03-04T02:00:03.885Z,98384
2017-03-04T02:01:03.404Z,98388
2017-03-04T02:02:03.629Z,98391
2017-03-04T02:03:03.477Z,98389
2017-03-04T02:04:03.623Z,98388
2017-03-04T02:05:03.671Z,98392
2017-03-04T02:06:04.204Z,98389
2017-03-04T02:07:03.689Z,98388
2017-03-04T02:08:03.899Z,98379
2017-03-04T02:09:03.794Z,98385
2017-03-04T02:10:03.826Z,98387
2017-03-04T02:11:04.466Z,98382
2017-03-04T02:12:04.553Z,98382
2017-03-04T02:13:04.591Z,98380
2017-03-04T02:14:04.588Z,98379
2017-03-04T02:15:04.092Z,98376
2017-03-04T02:16:04.721Z,98370
2017-03-04T02:17:04.285Z,98371
2017-03-04T02:18:04.269Z,98379
2017-03-04T02:19:04.883Z,98378
2017-03-04T02:20:04.476Z,98376
2017-03-04T02:21:04.524Z,98375
2017-03-04T02:22:04.496Z,98373
2017-03-04T02:23:04.589Z,98372
2017-03-04T02:24:05.251Z,98371
2017-03-04T02:25:04.712Z,98369
2017-03-04T02:26:05.255Z,98367
2017-03-04T02:27:05.262Z,98371
2017-03-04T02:28:05.337Z,98363
2017-03-04T02:29:04.915Z,98360
2017-03-04T02:30:05.011Z,98362
2017-03-04T02:31:05.057Z,98353
2017-03-04T02:32:05.630Z,98361
2017-03-04T02:33:05.216Z,98354
2017-03-04T02:34:05.244Z,98360
2017-03-04T02:35:05.844Z,98352
2017-03-04T02:36:05.409Z,98358
2017-03-04T02:37:05.384Z,98352
2017-03-04T02:38:05.960Z,98353
2017-03-04T02:39:06.080Z,98355
2017-03-04T02:40:06.069Z,98358
2017-03-04T02:41:06.147Z,98357
2017-03-04T02:42:06.148Z,98358
2017-03-04T02:43:06.137Z,98350
2017-03-04T02:44:06.232Z,98353
2017-03-04T02:45:05.671Z,98349
2017-03-04T02:46:05.792Z,98355
2017-03-04T02:47:05.794Z,98349
2017-03-04T02:48:06.395Z,98345
2017-03-04T02:49:06.465Z,98346
2017-03-04T02:50:06.008Z,98345
2017-03-04T02:51:06.085Z,98347
2017-03-04T02:52:06.186Z,98348
2017-03-04T02:53:06.272Z,98346
2017-03-04T02:54:06.343Z,98343
2017-03-04T02:55:06.413Z,98343
2017-03-04T02:56:06.980Z,98341
2017-03-04T02:57:07.086Z,98340
2017-03-04T02:58:07.139Z,98337
2017-03-04T02:59:06.611Z,98336
2017-03-04T03:00:06.640Z,98337
2017-03-04T03:01:06.643Z,98342
2017-03-04T03:02:06.696Z,98333
2017-03-04T03:03:07.297Z,98335
2017-03-04T03:04:07.415Z,98338
2017-03-04T03:05:07.428Z,98332
2017-03-04T03:06:06.867Z,98334
2017-03-04T03:07:06.892Z,98334
2017-03-04T03:08:07.511Z,98336
2017-03-04T03:09:06.990Z,98338
2017-03-04T03:10:06.993Z,98340
2017-03-04T03:11:07.617Z,98339
2017-03-04T03:12:07.583Z,98340
2017-03-04T03:13:07.634Z,98333
2017-03-04T03:14:07.705Z,98332
2017-03-04T03:15:07.193Z,98334
2017-03-04T03:16:07.202Z,98339
2017-03-04T03:17:07.816Z,98340
2017-03-04T03:18:07.235Z,98330
2017-03-04T03:19:07.352Z,98334
2017-03-04T03:20:07.348Z,98335
2017-03-04T03:21:07.924Z,98328
2017-03-04T03:22:08.028Z,98329
2017-03-04T03:23:07.463Z,98334
2017-03-04T03:24:07.447Z,98330
2017-03-04T03:25:08.059Z,98333
2017-03-04T03:26:07.601Z,98330
2017-03-04T03:27:08.174Z,98330
2017-03-04T03:28:07.712Z,98326
2017-03-04T03:29:08.345Z,98329
2017-03-04T03:30:08.380Z,98327
2017-03-04T03:31:07.902Z,98326
2017-03-04T03:32:08.457Z,98326
2017-03-04T03:33:07.969Z,98326
2017-03-04T03:34:07.998Z,98326
2017-03-04T03:35:08.602Z,98327
2017-03-04T03:36:08.654Z,98324
2017-03-04T03:37:08.134Z,98325
2017-03-04T03:38:08.137Z,98323
2017-03-04T03:39:08.258Z,98323
2017-03-04T03:40:08.325Z,98318
2017-03-04T03:41:08.854Z,98326
2017-03-04T03:42:08.369Z,98320
2017-03-04T03:43:08.324Z,98313
2017-03-04T03:44:08.384Z,98318
2017-03-04T03:45:08.533Z,98307
2017-03-04T03:46:08.506Z,98309
2017-03-04T03:47:09.133Z,98310
2017-03-04T03:48:08.711Z,98310
2017-03-04T03:49:09.267Z,98307
2017-03-04T03:50:09.289Z,98308
2017-03-04T03:51:09.307Z,98313
2017-03-04T03:52:08.925Z,98309
2017-03-04T03:53:08.944Z,98316
2017-03-04T03:54:09.528Z,98311
2017-03-04T03:55:09.042Z,98312
2017-03-04T03:56:09.623Z,98306
2017-03-04T03:57:09.144Z,98310
2017-03-04T03:58:09.681Z,98310
2017-03-04T03:59:09.770Z,98313
2017-03-04T04:00:09.284Z,98311
2017-03-04T04:01:09.213Z,98310
2017-03-04T04:02:09.299Z,98309
2017-03-04T04:03:09.894Z,98305
2017-03-04T04:04:09.422Z,98304
2017-03-04T04:05:09.986Z,98303
2017-03-04T04:06:09.995Z,98307
2017-03-04T04:07:09.479Z,98303
2017-03-04T04:08:09.532Z,98299
2017-03-04T04:09:09.522Z,98305
2017-03-04T04:10:10.182Z,98308
2017-03-04T04:11:09.664Z,98309
2017-03-04T04:12:09.655Z,98309
2017-03-04T04:13:10.240Z,98310
2017-03-04T04:14:09.751Z,98303
2017-03-04T04:15:10.338Z,98306
2017-03-04T04:16:09.833Z,98302
2017-03-04T04:17:09.909Z,98304
2017-03-04T04:18:09.997Z,98311
2017-03-04T04:19:10.515Z,98310
2017-03-04T04:20:10.092Z,98310
2017-03-04T04:21:10.654Z,98311
2017-03-04T04:22:10.737Z,98309
2017-03-04T04:23:10.269Z,98303
2017-03-04T04:24:10.326Z,98304
2017-03-04T04:25:10.902Z,98303
2017-03-04T04:26:10.951Z,98304
2017-03-04T04:27:11.109Z,98303
2017-03-04T04:28:10.584Z,98299
2017-03-04T04:29:10.589Z,98303
2017-03-04T04:30:10.655Z,98304
2017-03-04T04:31:10.665Z,98303
2017-03-04T04:32:11.312Z,98299
2017-03-04T04:33:10.805Z,98299
2017-03-04T04:34:10.786Z,98300
2017-03-04T04:35:11.405Z,98296
2017-03-04T04:36:10.820Z,98294
2017-03-04T04:37:10.921Z,98298
2017-03-04T04:38:10.988Z,98296
2017-03-04T04:39:11.035Z,98299
2017-03-04T04:40:11.664Z,98300
2017-03-04T04:41:11.776Z,98300
2017-03-04T04:42:11.790Z,98294
2017-03-04T04:43:11.821Z,98293
2017-03-04T04:44:11.875Z,98298
2017-03-04T04:45:11.435Z,98292
2017-03-04T04:46:11.476Z,98293
2017-03-04T04:47:12.057Z,98291
2017-03-04T04:48:11.558Z,98291
2017-03-04T04:49:12.134Z,98287
2017-03-04T04:50:12.166Z,98291
2017-03-04T04:51:12.249Z,98287
2017-03-04T04:52:12.288Z,98287
2017-03-04T04:53:12.352Z,98282
2017-03-04T04:54:11.801Z,98283
2017-03-04T04:55:11.902Z,98275
2017-03-04T04:56:11.932Z,98273
2017-03-04T04:57:11.959Z,98275
2017-03-04T04:58:12.577Z,98273
2017-03-04T04:59:12.164Z,98276
2017-03-04T05:00:12.758Z,98277
2017-03-04T05:01:12.283Z,98273
2017-03-04T05:02:12.821Z,98274
2017-03-04T05:03:12.311Z,98270
2017-03-04T05:04:12.422Z,98271
2017-03-04T05:05:12.408Z,98274
2017-03-04T05:06:13.092Z,98269
2017-03-04T05:08:13.151Z,98268
2017-03-04T05:09:12.610Z,98268
2017-03-04T05:10:13.223Z,98267
2017-03-04T05:11:12.822Z,98270
2017-03-04T05:12:12.827Z,98263
2017-03-04T05:13:12.836Z,98263
2017-03-04T05:14:12.942Z,98268
2017-03-04T05:15:12.940Z,98265
2017-03-04T05:16:13.506Z,98267
2017-03-04T05:17:13.030Z,98267
2017-03-04T05:18:13.619Z,98269
2017-03-04T05:19:13.703Z,98266
2017-03-04T05:20:13.757Z,98263
2017-03-04T05:21:13.278Z,98259
2017-03-04T05:22:13.321Z,98263
2017-03-04T05:23:13.410Z,98261
2017-03-04T05:24:13.473Z,98260
2017-03-04T05:25:13.529Z,98264
2017-03-04T05:26:13.588Z,98265
2017-03-04T05:27:14.105Z,98268
2017-03-04T05:28:13.661Z,98263
2017-03-04T05:29:14.259Z,98265
2017-03-04T05:30:14.354Z,98269
2017-03-04T05:31:14.399Z,98271
2017-03-04T05:32:13.936Z,98270
2017-03-04T05:33:13.934Z,98268
2017-03-04T05:34:14.011Z,98274
2017-03-04T05:35:14.691Z,98268
2017-03-04T05:36:14.667Z,98271
2017-03-04T05:37:14.685Z,98270
2017-03-04T05:38:14.669Z,98268
2017-03-04T05:39:14.746Z,98272
2017-03-04T05:40:14.288Z,98271
2017-03-04T05:41:14.303Z,98264
2017-03-04T05:42:14.860Z,98272
2017-03-04T05:43:14.329Z,98267
2017-03-04T05:44:14.878Z,98271
2017-03-04T05:45:14.960Z,98269
2017-03-04T05:46:15.043Z,98260
2017-03-04T05:47:14.508Z,98263
2017-03-04T05:48:15.063Z,98264
2017-03-04T05:49:15.082Z,98268
2017-03-04T05:50:15.120Z,98266
2017-03-04T05:51:14.646Z,98263
2017-03-04T05:52:14.649Z,98260
2017-03-04T05:53:14.707Z,98262
2017-03-04T05:54:14.769Z,98268
2017-03-04T05:55:15.370Z,98270
2017-03-04T05:56:15.367Z,98261
2017-03-04T05:57:15.457Z,98262
2017-03-04T05:58:15.000Z,98260
2017-03-04T05:59:15.613Z,98266
2017-03-04T06:00:15.167Z,98257
2017-03-04T06:01:15.194Z,98262
2017-03-04T06:02:15.829Z,98265
2017-03-04T06:03:15.907Z,98262
2017-03-04T06:04:15.849Z,98264
2017-03-04T06:05:15.420Z,98261
2017-03-04T06:06:15.956Z,98261
2017-03-04T06:07:15.470Z,98259
2017-03-04T06:08:15.538Z,98262
2017-03-04T06:09:15.545Z,98263
2017-03-04T06:10:16.115Z,98263
2017-03-04T06:11:15.629Z,98258
2017-03-04T06:12:15.701Z,98265
2017-03-04T06:13:16.289Z,98267
2017-03-04T06:14:15.786Z,98271
2017-03-04T06:15:15.829Z,98267
2017-03-04T06:16:16.420Z,98267
2017-03-04T06:17:16.008Z,98268
2017-03-04T06:18:16.562Z,98271
2017-03-04T06:19:16.052Z,98268
2017-03-04T06:20:16.690Z,98267
2017-03-04T06:21:16.211Z,98272
2017-03-04T06:22:16.281Z,98271
2017-03-04T06:23:16.311Z,98277
2017-03-04T06:24:16.834Z,98275
2017-03-04T06:25:16.281Z,98267
2017-03-04T06:26:16.323Z,98273
2017-03-04T06:27:16.990Z,98270
2017-03-04T06:28:16.419Z,98271
2017-03-04T06:29:17.067Z,98273
2017-03-04T06:30:17.059Z,98264
2017-03-04T06:31:16.633Z,98268
2017-03-04T06:32:16.654Z,98268
2017-03-04T06:33:16.613Z,98263
2017-03-04T06:34:17.199Z,98267
2017-03-04T06:35:16.707Z,98270
2017-03-04T06:36:17.352Z,98268
2017-03-04T06:37:16.837Z,98267
2017-03-04T06:38:16.918Z,98271
2017-03-04T06:39:17.489Z,98271
2017-03-04T06:40:17.560Z,98262
2017-03-04T06:41:17.580Z,98262
2017-03-04T06:42:17.109Z,98255
2017-03-04T06:43:17.232Z,98261
2017-03-04T06:44:17.841Z,98257
2017-03-04T06:45:17.291Z,98260
2017-03-04T06:46:17.296Z,98257
2017-03-04T06:47:17.855Z,98258
2017-03-04T06:48:17.427Z,98255
2017-03-04T06:49:18.059Z,98255
2017-03-04T06:50:17.491Z,98255
2017-03-04T06:51:17.573Z,98262
2017-03-04T06:52:18.193Z,98260
2017-03-04T06:53:18.178Z,98257
2017-03-04T06:54:18.254Z,98263
2017-03-04T06:55:18.281Z,98260
2017-03-04T06:56:17.876Z,98269
2017-03-04T06:57:18.424Z,98263
2017-03-04T06:58:17.917Z,98266
2017-03-04T06:59:18.567Z,98263
2017-03-04T07:00:18.646Z,98264
2017-03-04T07:01:18.679Z,98260
2017-03-04T07:02:18.755Z,98259
2017-03-04T07:03:18.769Z,98252
2017-03-04T07:04:18.745Z,98252
2017-03-04T07:05:18.320Z,98248
2017-03-04T07:06:18.355Z,98254
2017-03-04T07:07:18.970Z,98249
2017-03-04T07:08:18.460Z,98252
2017-03-04T07:09:19.057Z,98256
2017-03-04T07:10:19.063Z,98247
2017-03-04T07:11:19.062Z,98255
2017-03-04T07:12:19.163Z,98255
2017-03-04T07:13:18.659Z,98250
2017-03-04T07:14:18.659Z,98253
2017-03-04T07:15:19.301Z,98251
2017-03-04T07:16:18.764Z,98255
2017-03-04T07:17:18.797Z,98253
2017-03-04T07:18:19.598Z,98249
2017-03-04T07:19:19.001Z,98247
2017-03-04T07:20:19.067Z,98252
2017-03-04T07:21:19.068Z,98249
2017-03-04T07:22:19.071Z,98246
2017-03-04T07:23:19.758Z,98249
2017-03-04T07:24:19.351Z,98243
2017-03-04T07:25:19.250Z,98239
2017-03-04T07:26:19.876Z,98239
2017-03-04T07:27:19.350Z,98244
2017-03-04T07:28:20.000Z,98237
2017-03-04T07:29:20.050Z,98238
2017-03-04T07:30:20.238Z,98246
2017-03-04T07:31:20.066Z,98239
2017-03-04T07:32:20.082Z,98242
2017-03-04T07:33:19.636Z,98244
2017-03-04T07:34:19.786Z,98240
2017-03-04T07:35:20.323Z,98238
2017-03-04T07:36:20.480Z,98238
2017-03-04T07:37:20.295Z,98240
2017-03-04T07:38:20.393Z,98239
2017-03-04T07:39:19.914Z,98240
2017-03-04T07:40:19.909Z,98240
2017-03-04T07:41:20.541Z,98237
2017-03-04T07:42:20.731Z,98235
2017-03-04T07:43:20.045Z,98237
2017-03-04T07:44:20.624Z,98239
2017-03-04T07:45:20.140Z,98237
2017-03-04T07:46:20.185Z,98238
2017-03-04T07:47:20.215Z,98241
2017-03-04T07:48:20.990Z,98237
2017-03-04T07:49:20.947Z,98234
2017-03-04T07:50:20.948Z,98239
2017-03-04T07:51:21.048Z,98240
2017-03-04T07:52:21.042Z,98243
2017-03-04T07:53:21.196Z,98243
2017-03-04T07:54:21.403Z,98239
2017-03-04T07:55:20.710Z,98242
2017-03-04T07:56:21.352Z,98239
2017-03-04T07:57:20.855Z,98242
2017-03-04T07:58:21.443Z,98239
2017-03-04T07:59:21.683Z,98241
2017-03-04T08:00:21.061Z,98244
2017-03-04T08:01:21.158Z,98245
2017-03-04T08:02:21.711Z,98238
2017-03-04T08:03:21.173Z,98244
2017-03-04T08:04:21.729Z,98248
2017-03-04T08:05:21.954Z,98249
2017-03-04T08:06:21.750Z,98248
2017-03-04T08:07:21.337Z,98250
2017-03-04T08:08:21.428Z,98247
2017-03-04T08:09:21.981Z,98249
2017-03-04T08:10:22.040Z,98246
2017-03-04T08:11:21.847Z,98246
2017-03-04T08:12:22.126Z,98251
2017-03-04T08:13:22.242Z,98245
2017-03-04T08:14:22.302Z,98254
2017-03-04T08:15:21.840Z,98248
2017-03-04T08:16:22.051Z,98248
2017-03-04T08:17:22.007Z,98244
2017-03-04T08:18:22.063Z,98247
2017-03-04T08:19:22.636Z,98247
2017-03-04T08:20:22.774Z,98245
2017-03-04T08:21:22.814Z,98243
2017-03-04T08:22:23.030Z,98244
2017-03-04T08:23:22.369Z,98234
2017-03-04T08:24:22.948Z,98239
2017-03-04T08:25:22.495Z,98240
2017-03-04T08:26:23.113Z,98238
2017-03-04T08:27:23.224Z,98241
2017-03-04T08:28:23.457Z,98236
2017-03-04T08:29:22.717Z,98231
2017-03-04T08:30:23.306Z,98233
2017-03-04T08:31:23.328Z,98232
2017-03-04T08:32:23.376Z,98232
2017-03-04T08:33:22.822Z,98231
2017-03-04T08:34:23.586Z,98234
2017-03-04T08:35:23.481Z,98234
2017-03-04T08:36:22.967Z,98233
2017-03-04T08:37:23.065Z,98232
2017-03-04T08:38:23.087Z,98229
2017-03-04T08:39:23.163Z,98232
2017-03-04T08:40:23.810Z,98229
2017-03-04T08:41:23.225Z,98231
2017-03-04T08:42:23.282Z,98234
2017-03-04T08:43:23.303Z,98231
2017-03-04T08:44:23.314Z,98230
2017-03-04T08:45:23.359Z,98230
2017-03-04T08:46:24.104Z,98233
2017-03-04T08:47:23.484Z,98235
2017-03-04T08:48:23.576Z,98233
2017-03-04T08:49:23.545Z,98231
2017-03-04T08:50:23.597Z,98235
2017-03-04T08:51:23.614Z,98235
2017-03-04T08:52:24.416Z,98235
2017-03-04T08:53:23.792Z,98234
2017-03-04T08:54:23.828Z,98236
2017-03-04T08:55:24.417Z,98234
2017-03-04T08:56:23.972Z,98235
2017-03-04T08:57:24.006Z,98230
2017-03-04T08:58:24.654Z,98228
2017-03-04T08:59:24.729Z,98229
2017-03-04T09:00:24.221Z,98227
2017-03-04T09:01:24.731Z,98221
2017-03-04T09:02:24.340Z,98222
2017-03-04T09:03:25.037Z,98227
2017-03-04T09:04:24.871Z,98227
2017-03-04T09:05:24.374Z,98231
2017-03-04T09:06:24.971Z,98231
2017-03-04T09:07:24.968Z,98223
2017-03-04T09:08:24.437Z,98221
2017-03-04T09:09:24.566Z,98220
2017-03-04T09:10:25.107Z,98216
2017-03-04T09:11:25.118Z,98221
2017-03-04T09:12:24.582Z,98220
2017-03-04T09:13:24.688Z,98225
2017-03-04T09:14:25.294Z,98224
2017-03-04T09:15:24.750Z,98219
2017-03-04T09:16:24.881Z,98217
2017-03-04T09:17:24.937Z,98216
2017-03-04T09:18:25.550Z,98212
2017-03-04T09:19:26.233Z,98214
2017-03-04T09:20:25.078Z,98214
2017-03-04T09:21:25.182Z,98212
2017-03-04T09:22:25.245Z,98215
2017-03-04T09:23:25.875Z,98212
2017-03-04T09:24:25.337Z,98209
2017-03-04T09:25:25.944Z,98205
2017-03-04T09:26:25.499Z,98207
2017-03-04T09:27:26.037Z,98205
2017-03-04T09:28:25.561Z,98204
2017-03-04T09:29:26.228Z,98202
2017-03-04T09:30:26.215Z,98198
2017-03-04T09:31:26.250Z,98195
2017-03-04T09:32:26.315Z,98189
2017-03-04T09:33:25.831Z,98191
2017-03-04T09:34:25.833Z,98188
2017-03-04T09:35:26.466Z,98187
2017-03-04T09:36:26.492Z,98187
2017-03-04T09:37:26.545Z,98180
2017-03-04T09:38:26.594Z,98182
2017-03-04T09:39:26.142Z,98180
2017-03-04T09:40:26.693Z,98171
2017-03-04T09:41:26.259Z,98168
2017-03-04T09:42:26.356Z,98175
2017-03-04T09:43:26.898Z,98169
2017-03-04T09:44:26.439Z,98161
2017-03-04T09:45:26.448Z,98165
2017-03-04T09:46:26.442Z,98166
2017-03-04T09:47:26.528Z,98165
2017-03-04T09:48:27.032Z,98162
2017-03-04T09:49:27.122Z,98156
2017-03-04T09:50:27.227Z,98157
2017-03-04T09:51:27.241Z,98154
2017-03-04T09:52:26.735Z,98157
2017-03-04T09:53:26.785Z,98161
2017-03-04T09:54:27.331Z,98158
2017-03-04T09:55:26.762Z,98158
2017-03-04T09:56:26.894Z,98159
2017-03-04T09:57:26.961Z,98154
2017-03-04T09:58:27.525Z,98155
2017-03-04T09:59:27.079Z,98162
2017-03-04T10:00:27.063Z,98160
2017-03-04T10:01:27.057Z,98157
2017-03-04T10:02:27.196Z,98157
2017-03-04T10:03:27.215Z,98158
2017-03-04T10:04:27.819Z,98154
2017-03-04T10:05:27.884Z,98153
2017-03-04T10:06:27.915Z,98156
2017-03-04T10:07:27.474Z,98151
2017-03-04T10:08:27.567Z,98141
2017-03-04T10:09:28.077Z,98149
2017-03-04T10:10:27.619Z,98143
2017-03-04T10:11:28.270Z,98144
2017-03-04T10:12:28.357Z,98143
2017-03-04T10:13:28.352Z,98140
2017-03-04T10:14:27.841Z,98130
2017-03-04T10:15:28.680Z,98136
2017-03-04T10:16:28.559Z,98137
2017-03-04T10:17:28.587Z,98135
2017-03-04T10:18:28.604Z,98133
2017-03-04T10:19:28.637Z,98130
2017-03-04T10:20:28.232Z,98132
2017-03-04T10:21:28.434Z,98130
2017-03-04T10:22:28.869Z,98132
2017-03-04T10:23:28.331Z,98130
2017-03-04T10:24:28.422Z,98129
2017-03-04T10:25:28.987Z,98128
2017-03-04T10:26:29.140Z,98131
2017-03-04T10:27:28.771Z,98140
2017-03-04T10:28:29.264Z,98138
2017-03-04T10:29:29.240Z,98140
2017-03-04T10:30:28.802Z,98137
2017-03-04T10:31:28.819Z,98130
2017-03-04T10:32:29.434Z,98132
2017-03-04T10:33:29.141Z,98125
2017-03-04T10:34:28.970Z,98118
2017-03-04T10:35:28.976Z,98123
2017-03-04T10:36:29.613Z,98128
2017-03-04T10:37:29.131Z,98131
2017-03-04T10:38:29.659Z,98130
2017-03-04T10:39:29.939Z,98131
2017-03-04T10:40:29.815Z,98135
2017-03-04T10:41:29.308Z,98133
2017-03-04T10:42:29.348Z,98135
2017-03-04T10:43:29.384Z,98131
2017-03-04T10:44:29.954Z,98119
2017-03-04T10:45:29.635Z,98118
2017-03-04T10:46:29.471Z,98113
2017-03-04T10:47:29.591Z,98115
2017-03-04T10:48:29.600Z,98113
2017-03-04T10:49:29.579Z,98106
2017-03-04T10:50:29.668Z,98098
2017-03-04T10:51:30.451Z,98103
2017-03-04T10:52:30.368Z,98107
2017-03-04T10:53:29.915Z,98106
2017-03-04T10:54:30.443Z,98101
2017-03-04T10:55:30.485Z,98101
2017-03-04T10:56:30.529Z,98101
2017-03-04T10:57:30.727Z,98106
2017-03-04T10:58:30.662Z,98106
2017-03-04T10:59:30.742Z,98115
2017-03-04T11:00:30.242Z,98116
2017-03-04T11:01:30.289Z,98118
2017-03-04T11:02:30.483Z,98115
2017-03-04T11:03:30.660Z,98121
2017-03-04T11:04:30.599Z,98119
2017-03-04T11:05:30.611Z,98126
2017-03-04T11:06:30.613Z,98125
2017-03-04T11:07:30.679Z,98116
2017-03-04T11:08:30.717Z,98126
2017-03-04T11:09:31.428Z,98117
2017-03-04T11:10:30.809Z,98124
2017-03-04T11:11:31.344Z,98119
2017-03-04T11:12:31.522Z,98116
2017-03-04T11:13:30.944Z,98127
2017-03-04T11:14:31.734Z,98122
2017-03-04T11:15:31.594Z,98113
2017-03-04T11:16:31.100Z,98116
2017-03-04T11:17:31.692Z,98113
2017-03-04T11:18:31.814Z,98110
2017-03-04T11:19:31.211Z,98121
2017-03-04T11:20:32.027Z,98117
2017-03-04T11:21:31.812Z,98114
2017-03-04T11:22:31.321Z,98117
2017-03-04T11:23:31.329Z,98119
2017-03-04T11:24:31.923Z,98121
2017-03-04T11:25:31.416Z,98121
2017-03-04T11:26:32.171Z,98107
2017-03-04T11:27:31.532Z,98109
2017-03-04T11:28:32.062Z,98101
2017-03-04T11:29:32.202Z,98109
2017-03-04T11:30:31.693Z,98105
2017-03-04T11:31:32.360Z,98105
2017-03-04T11:32:32.688Z,98106
2017-03-04T11:33:31.962Z,98109
2017-03-04T11:34:32.536Z,98110
2017-03-04T11:35:32.601Z,98101
2017-03-04T11:36:32.112Z,98090
2017-03-04T11:37:32.771Z,98094
2017-03-04T11:38:32.963Z,98091
2017-03-04T11:39:32.336Z,98087
2017-03-04T11:40:32.405Z,98089
2017-03-04T11:41:32.399Z,98088
2017-03-04T11:42:32.409Z,98091
2017-03-04T11:43:32.989Z,98093
2017-03-04T11:44:32.685Z,98086
2017-03-04T11:45:32.593Z,98098
2017-03-04T11:46:32.601Z,98101
2017-03-04T11:47:32.667Z,98093
2017-03-04T11:48:32.775Z,98097
2017-03-04T11:49:33.278Z,98093
2017-03-04T11:50:33.463Z,98095
2017-03-04T11:51:33.329Z,98097
2017-03-04T11:52:32.826Z,98091
2017-03-04T11:53:33.453Z,98085
2017-03-04T11:54:32.871Z,98088
2017-03-04T11:55:32.999Z,98086
2017-03-04T11:56:33.762Z,98080
2017-03-04T11:57:33.062Z,98081
2017-03-04T11:58:33.107Z,98079
2017-03-04T11:59:33.668Z,98090
2017-03-04T12:00:33.668Z,98089
2017-03-04T12:01:33.776Z,98083
2017-03-04T12:02:33.392Z,98083
2017-03-04T12:03:33.888Z,98074
2017-03-04T12:04:33.370Z,98080
2017-03-04T12:05:33.344Z,98076
2017-03-04T12:06:33.458Z,98074
2017-03-04T12:07:33.539Z,98068
2017-03-04T12:08:33.699Z,98070
2017-03-04T12:09:34.172Z,98066
2017-03-04T12:10:34.265Z,98061
2017-03-04T12:11:34.279Z,98061
2017-03-04T12:12:34.317Z,98052
2017-03-04T12:13:34.401Z,98055
2017-03-04T12:14:34.164Z,98054
2017-03-04T12:15:34.413Z,98057
2017-03-04T12:16:34.460Z,98060
2017-03-04T12:17:33.920Z,98061
2017-03-04T12:18:34.537Z,98063
2017-03-04T12:19:34.128Z,98055
2017-03-04T12:20:34.917Z,98059
2017-03-04T12:21:34.294Z,98052
2017-03-04T12:22:34.883Z,98045
2017-03-04T12:23:34.443Z,98038
2017-03-04T12:24:34.431Z,98042
2017-03-04T12:25:34.514Z,98044
2017-03-04T12:26:34.850Z,98040
2017-03-04T12:27:34.669Z,98040
2017-03-04T12:28:34.770Z,98039
2017-03-04T12:29:35.359Z,98036
2017-03-04T12:30:34.813Z,98039
2017-03-04T12:31:35.401Z,98039
2017-03-04T12:32:35.092Z,98040
2017-03-04T12:33:34.936Z,98037
2017-03-04T12:34:34.986Z,98034
2017-03-04T12:35:35.644Z,98034
2017-03-04T12:36:35.125Z,98033
2017-03-04T12:37:35.747Z,98029
2017-03-04T12:38:35.528Z,98025
2017-03-04T12:39:35.324Z,98021
2017-03-04T12:40:35.960Z,98021
2017-03-04T12:41:36.031Z,98019
2017-03-04T12:42:35.485Z,98023
2017-03-04T12:43:36.167Z,98017
2017-03-04T12:44:35.895Z,98013
2017-03-04T12:45:36.876Z,98009
2017-03-04T12:46:36.369Z,98013
2017-03-04T12:47:36.372Z,98020
2017-03-04T12:48:36.404Z,98018
2017-03-04T12:49:36.117Z,98014
2017-03-04T12:50:36.543Z,98016
2017-03-04T12:51:36.538Z,98024
2017-03-04T12:52:36.626Z,98019
2017-03-04T12:53:36.665Z,98015
2017-03-04T12:54:36.728Z,98015